createdAt,value
2023-02-09T00:01:25.376Z,15.00
2023-02-09T00:03:54.587Z,16.20
2023-02-09T00:06:25.562Z,13.17
2023-02-09T00:08:56.655Z,9.80
2023-02-09T00:11:47.672Z,13.60
2023-02-09T00:14:17.626Z,12.60
2023-02-09T00:16:47.280Z,10.13
2023-02-09T00:19:16.637Z,9.43
2023-02-09T00:21:45.241Z,8.80
2023-02-09T00:24:16.438Z,15.77
2023-02-09T00:26:45.751Z,8.87
2023-02-09T00:29:14.787Z,7.93
2023-02-09T00:31:43.347Z,9.20
2023-02-09T00:34:12.055Z,8.27
2023-02-09T00:36:40.925Z,6.17
2023-02-09T00:39:10.100Z,9.33
2023-02-09T00:41:57.304Z,8.00
2023-02-09T00:44:25.872Z,8.63
2023-02-09T00:46:54.765Z,7.43
2023-02-09T00:49:23.277Z,7.87
2023-02-09T00:51:52.099Z,6.73
2023-02-09T00:54:20.626Z,6.53
2023-02-09T00:56:50.737Z,4.83
2023-02-09T00:59:19.384Z,8.67
2023-02-09T01:01:48.303Z,5.80
2023-02-09T01:04:16.900Z,7.13
2023-02-09T01:06:45.499Z,8.07
2023-02-09T01:09:14.147Z,8.87
2023-02-09T01:11:42.682Z,6.87
2023-02-09T01:14:13.067Z,8.13
2023-02-09T01:16:41.996Z,6.73
2023-02-09T01:19:13.567Z,7.17
2023-02-09T01:21:45.015Z,7.97
2023-02-09T01:24:15.776Z,10.73
2023-02-09T01:26:44.721Z,6.83
2023-02-09T01:29:17.258Z,15.77
2023-02-09T01:31:46.151Z,12.03
2023-02-09T01:34:16.894Z,13.80
2023-02-09T01:36:46.328Z,10.83
2023-02-09T01:39:18.518Z,7.47
2023-02-09T01:41:47.358Z,9.00
2023-02-09T01:44:53.625Z,8.20
2023-02-09T01:47:23.580Z,8.00
2023-02-09T01:49:52.954Z,8.83
2023-02-09T01:52:25.129Z,8.40
2023-02-09T01:54:57.396Z,8.60
2023-02-09T01:57:29.477Z,8.83
2023-02-09T02:00:02.126Z,7.30
2023-02-09T02:02:32.526Z,8.40
2023-02-09T02:05:01.404Z,8.03
2023-02-09T02:07:34.310Z,7.77
2023-02-09T02:10:04.376Z,7.07
2023-02-09T02:12:34.948Z,8.90
2023-02-09T02:15:03.500Z,10.90
2023-02-09T02:18:00.261Z,8.23
2023-02-09T02:20:59.693Z,6.80
2023-02-09T02:23:34.166Z,8.13
2023-02-09T02:26:27.125Z,8.60
2023-02-09T02:29:26.208Z,6.33
2023-02-09T02:32:17.308Z,9.73
2023-02-09T02:34:57.292Z,8.20
2023-02-09T02:37:38.660Z,10.63
2023-02-09T02:40:18.803Z,9.90
2023-02-09T02:42:56.980Z,8.77
2023-02-09T02:45:34.277Z,12.30
2023-02-09T02:48:12.316Z,20.07
2023-02-09T02:50:46.174Z,15.57
2023-02-09T02:53:16.245Z,20.30
2023-02-09T02:55:46.325Z,24.63
2023-02-09T02:58:16.563Z,21.40
2023-02-09T03:00:50.112Z,21.67
2023-02-09T03:03:23.872Z,15.40
2023-02-09T03:05:52.970Z,15.27
2023-02-09T03:08:22.088Z,10.03
2023-02-09T03:10:51.184Z,12.43
2023-02-09T03:13:38.570Z,10.80
2023-02-09T03:16:22.263Z,9.90
2023-02-09T03:22:42.864Z,10.43
2023-02-09T03:25:17.244Z,11.90
2023-02-09T03:27:50.184Z,11.87
2023-02-09T03:30:20.165Z,12.97
2023-02-09T03:32:49.524Z,12.37
2023-02-09T03:35:21.397Z,11.57
2023-02-09T03:37:51.323Z,14.40
2023-02-09T03:40:20.628Z,10.10
2023-02-09T03:42:49.624Z,10.60
2023-02-09T03:45:18.305Z,17.23
2023-02-09T03:47:48.355Z,14.33
2023-02-09T03:50:17.322Z,13.57
2023-02-09T03:52:45.859Z,12.93
2023-02-09T03:55:15.971Z,17.53
2023-02-09T03:57:45.193Z,14.23
2023-02-09T04:00:15.194Z,15.03
2023-02-09T04:02:44.078Z,22.57
2023-02-09T04:05:13.159Z,21.37
2023-02-09T04:07:42.839Z,22.57
2023-02-09T04:10:11.611Z,19.50
2023-02-09T04:12:41.826Z,20.33
2023-02-09T04:15:11.454Z,23.83
2023-02-09T04:17:40.080Z,14.07
2023-02-09T04:20:09.688Z,14.07
2023-02-09T04:22:38.580Z,12.53
2023-02-09T04:25:07.799Z,12.67
2023-02-09T04:27:36.442Z,9.57
2023-02-09T04:30:07.051Z,12.63
2023-02-09T04:32:35.866Z,16.87
2023-02-09T04:35:04.408Z,21.43
2023-02-09T04:37:32.913Z,23.93
2023-02-09T04:40:06.818Z,25.37
2023-02-09T04:42:36.215Z,26.17
2023-02-09T04:45:07.381Z,29.67
2023-02-09T04:47:36.195Z,33.67
2023-02-09T04:50:05.161Z,29.97
2023-02-09T04:52:34.375Z,33.90
2023-02-09T04:55:02.954Z,27.37
2023-02-09T04:57:48.989Z,26.53
2023-02-09T05:00:19.401Z,26.93
2023-02-09T05:02:47.946Z,23.30
2023-02-09T05:05:16.649Z,21.57
2023-02-09T05:07:45.121Z,18.03
2023-02-09T05:10:13.944Z,21.47
2023-02-09T05:12:42.696Z,17.80
2023-02-09T05:15:12.252Z,20.47
2023-02-09T05:17:43.128Z,21.80
2023-02-09T05:20:12.764Z,20.80
2023-02-09T05:22:41.276Z,20.13
2023-02-09T05:25:10.125Z,23.53
2023-02-09T05:27:38.711Z,17.23
2023-02-09T05:30:08.208Z,16.97
2023-02-09T05:32:36.748Z,20.83
2023-02-09T05:35:08.583Z,18.07
2023-02-09T05:37:37.161Z,21.20
2023-02-09T05:40:06.522Z,21.97
2023-02-09T05:42:34.973Z,22.37
2023-02-09T05:45:03.859Z,18.50
2023-02-09T05:47:32.540Z,19.20
2023-02-09T05:50:02.478Z,19.50
2023-02-09T05:52:32.434Z,21.67
2023-02-09T05:55:01.416Z,20.47
2023-02-09T05:57:30.022Z,25.47
2023-02-09T05:59:59.200Z,20.27
2023-02-09T06:02:29.352Z,20.20
2023-02-09T06:04:58.490Z,23.13
2023-02-09T06:07:27.169Z,19.07
2023-02-09T06:09:57.422Z,20.37
2023-02-09T06:12:26.559Z,20.43
2023-02-09T06:14:55.072Z,18.50
2023-02-09T06:17:23.642Z,22.23
2023-02-09T06:19:52.597Z,21.07
2023-02-09T06:22:21.153Z,28.63
2023-02-09T06:24:49.649Z,23.60
2023-02-09T06:27:19.681Z,28.80
2023-02-09T06:29:48.271Z,25.70
2023-02-09T06:32:16.968Z,24.47
2023-02-09T06:34:45.588Z,23.90
2023-02-09T06:37:14.131Z,24.60
2023-02-09T06:39:42.693Z,22.77
2023-02-09T06:42:11.277Z,24.10
2023-02-09T06:44:41.471Z,25.27
2023-02-09T06:47:10.027Z,23.27
2023-02-09T06:49:38.530Z,23.17
2023-02-09T06:52:07.588Z,22.57
2023-02-09T06:54:36.190Z,22.93
2023-02-09T06:57:05.340Z,20.50
2023-02-09T06:59:34.194Z,24.90
2023-02-09T07:02:04.217Z,26.07
2023-02-09T07:04:33.380Z,24.90
2023-02-09T07:07:02.307Z,22.73
2023-02-09T07:09:30.887Z,21.63
2023-02-09T07:11:59.445Z,22.80
2023-02-09T07:14:28.123Z,23.07
2023-02-09T07:16:56.684Z,25.73
2023-02-09T07:19:26.664Z,21.07
2023-02-09T07:21:55.696Z,25.63
2023-02-09T07:24:24.506Z,21.23
2023-02-09T07:26:53.157Z,28.93
2023-02-09T07:29:21.706Z,28.77
2023-02-09T07:31:50.297Z,29.47
2023-02-09T07:34:19.045Z,27.97
2023-02-09T07:36:49.414Z,23.70
2023-02-09T07:39:18.241Z,36.63
2023-02-09T07:41:49.261Z,43.10
2023-02-09T07:44:17.953Z,39.93
2023-02-09T07:46:46.577Z,35.07
2023-02-09T07:49:15.341Z,37.73
2023-02-09T07:51:43.981Z,52.33
2023-02-09T07:54:16.063Z,47.93
2023-02-09T07:56:44.680Z,44.00
2023-02-09T07:59:13.242Z,34.37
2023-02-09T08:01:42.158Z,33.73
2023-02-09T08:04:10.887Z,39.43
2023-02-09T08:06:43.320Z,33.27
2023-02-09T08:09:15.366Z,34.50
2023-02-09T08:11:48.914Z,30.27
2023-02-09T08:14:22.383Z,24.40
2023-02-09T08:16:52.487Z,22.73
2023-02-09T08:19:24.837Z,24.13
2023-02-09T08:21:54.404Z,30.60
2023-02-09T08:24:24.448Z,37.43
2023-02-09T08:26:53.062Z,41.93
2023-02-09T08:29:22.258Z,44.07
2023-02-09T08:31:51.207Z,42.23
2023-02-09T08:34:20.209Z,40.33
2023-02-09T08:36:50.596Z,26.10
2023-02-09T08:39:19.525Z,26.03
2023-02-09T08:41:49.678Z,21.30
2023-02-09T08:44:18.339Z,27.63
2023-02-09T08:46:47.308Z,30.03
2023-02-09T08:49:16.071Z,27.67
2023-02-09T08:51:44.982Z,26.90
2023-02-09T08:54:13.671Z,27.97
2023-02-09T08:56:44.332Z,24.63
2023-02-09T08:59:14.345Z,22.27
2023-02-09T09:01:43.044Z,25.13
2023-02-09T09:04:12.540Z,23.63
2023-02-09T09:06:41.521Z,28.43
2023-02-09T09:09:10.187Z,26.23
2023-02-09T09:11:38.954Z,23.80
2023-02-09T09:14:07.581Z,22.13
2023-02-09T09:16:37.731Z,28.23
2023-02-09T09:19:06.968Z,30.13
2023-02-09T09:21:36.330Z,27.50
2023-02-09T09:24:05.308Z,32.33
2023-02-09T09:26:35.286Z,24.20
2023-02-09T09:29:04.338Z,24.70
2023-02-09T09:31:35.435Z,22.27
2023-02-09T09:34:05.549Z,21.53
2023-02-09T09:36:34.189Z,19.37
2023-02-09T09:39:03.429Z,20.40
2023-02-09T09:41:34.733Z,21.33
2023-02-09T09:44:04.150Z,19.30
2023-02-09T09:46:39.004Z,18.27
2023-02-09T09:49:21.775Z,17.57
2023-02-09T09:51:54.944Z,22.83
2023-02-09T09:54:27.055Z,20.00
2023-02-09T09:56:56.411Z,17.30
2023-02-09T09:59:29.858Z,20.30
2023-02-09T10:02:20.000Z,19.27
2023-02-09T10:04:52.388Z,17.53
2023-02-09T10:07:23.926Z,18.60
2023-02-09T10:09:57.377Z,17.27
2023-02-09T10:12:37.364Z,17.03
2023-02-09T10:15:20.168Z,18.73
2023-02-09T10:17:49.181Z,15.93
2023-02-09T10:20:21.024Z,19.17
2023-02-09T10:22:53.466Z,17.07
2023-02-09T10:25:49.750Z,17.97
2023-02-09T10:28:23.647Z,17.80
2023-02-09T10:30:54.923Z,16.80
2023-02-09T10:33:23.523Z,16.57
2023-02-09T10:35:56.804Z,18.00
2023-02-09T10:38:32.106Z,20.10
2023-02-09T10:41:02.975Z,17.60
2023-02-09T10:43:34.438Z,14.37
2023-02-09T10:46:04.809Z,20.20
2023-02-09T10:48:43.356Z,15.53
2023-02-09T10:51:17.847Z,24.63
2023-02-09T10:54:01.714Z,18.47
2023-02-09T10:56:44.336Z,16.10
2023-02-09T10:59:18.280Z,18.13
2023-02-09T11:01:59.714Z,16.10
2023-02-09T11:04:31.902Z,17.87
2023-02-09T11:07:03.787Z,16.30
2023-02-09T11:09:35.926Z,19.20
2023-02-09T11:12:05.403Z,18.17
2023-02-09T11:14:34.038Z,18.03
2023-02-09T11:17:22.603Z,18.07
2023-02-09T11:20:15.269Z,19.30
2023-02-09T11:22:57.907Z,20.77
2023-02-09T11:25:30.080Z,18.57
2023-02-09T11:28:27.961Z,17.63
2023-02-09T11:31:14.305Z,22.83
2023-02-09T11:33:54.809Z,21.33
2023-02-09T11:36:38.166Z,16.20
2023-02-09T11:39:15.449Z,17.50
2023-02-09T11:42:04.388Z,15.90
2023-02-09T11:44:39.477Z,16.50
2023-02-09T11:47:13.329Z,16.43
2023-02-09T11:49:46.050Z,16.87
2023-02-09T11:52:19.967Z,15.60
2023-02-09T11:54:54.497Z,16.87
2023-02-09T11:57:34.712Z,17.90
2023-02-09T12:00:08.950Z,18.87
2023-02-09T12:02:47.629Z,16.53
2023-02-09T12:05:19.575Z,16.83
2023-02-09T12:08:06.825Z,21.67
2023-02-09T12:10:44.706Z,15.50
2023-02-09T12:13:30.004Z,17.90
2023-02-09T12:16:01.398Z,14.40
2023-02-09T12:18:33.399Z,15.90
2023-02-09T12:21:06.542Z,14.63
2023-02-09T12:23:36.726Z,14.60
2023-02-09T12:26:28.581Z,16.03
2023-02-09T12:29:04.122Z,17.40
2023-02-09T12:31:54.114Z,16.53
2023-02-09T12:34:30.881Z,14.63
2023-02-09T12:37:28.601Z,16.90
2023-02-09T12:40:28.156Z,15.10
2023-02-09T12:43:39.890Z,16.23
2023-02-09T12:46:23.181Z,14.70
2023-02-09T12:49:10.522Z,25.20
2023-02-09T12:51:49.051Z,22.63
2023-02-09T12:54:39.912Z,17.57
2023-02-09T12:57:53.491Z,19.47
2023-02-09T13:00:53.749Z,16.40
2023-02-09T13:03:26.146Z,16.63
2023-02-09T13:06:00.187Z,28.77
2023-02-09T13:08:48.427Z,23.73
2023-02-09T13:11:28.842Z,18.33
2023-02-09T13:13:59.770Z,15.80
2023-02-09T13:17:04.608Z,18.53
2023-02-09T13:20:01.138Z,21.53
2023-02-09T13:22:37.717Z,17.13
2023-02-09T13:25:16.842Z,14.90
2023-02-09T13:27:47.621Z,15.73
2023-02-09T13:30:27.711Z,16.30
2023-02-09T13:33:05.091Z,15.10
2023-02-09T13:35:41.178Z,16.87
2023-02-09T13:38:18.428Z,14.20
2023-02-09T13:40:48.542Z,14.27
2023-02-09T13:43:20.457Z,15.63
2023-02-09T13:45:50.946Z,15.57
2023-02-09T13:48:25.915Z,16.00
2023-02-09T13:50:58.083Z,13.37
2023-02-09T13:53:28.987Z,16.20
2023-02-09T13:56:00.883Z,16.00
2023-02-09T13:58:33.090Z,17.40
2023-02-09T14:01:06.030Z,19.07
2023-02-09T14:03:56.728Z,17.10
2023-02-09T14:06:35.580Z,18.07
2023-02-09T14:09:06.660Z,18.70
2023-02-09T14:11:42.927Z,16.97
2023-02-09T14:14:18.349Z,15.90
2023-02-09T14:16:53.854Z,18.70
2023-02-09T14:19:28.733Z,19.93
2023-02-09T14:21:59.266Z,20.07
2023-02-09T14:24:32.385Z,18.93
2023-02-09T14:27:05.117Z,21.67
2023-02-09T14:29:36.446Z,20.03
2023-02-09T14:32:32.487Z,22.97
2023-02-09T14:35:10.967Z,16.53
2023-02-09T14:37:44.336Z,21.53
2023-02-09T14:40:24.481Z,18.83
2023-02-09T14:43:02.260Z,27.97
2023-02-09T14:45:37.925Z,31.70
2023-02-09T14:48:18.917Z,19.07
2023-02-09T14:50:48.096Z,23.83
2023-02-09T14:53:19.636Z,23.67
2023-02-09T14:55:48.961Z,32.53
2023-02-09T14:58:23.659Z,18.97
2023-02-09T15:00:54.327Z,22.50
2023-02-09T15:03:23.342Z,24.37
2023-02-09T15:05:56.269Z,21.57
2023-02-09T15:08:29.603Z,22.93
2023-02-09T15:11:01.000Z,25.63
2023-02-09T15:13:31.383Z,22.67
2023-02-09T15:16:00.668Z,19.10
2023-02-09T15:18:30.448Z,26.27
2023-02-09T15:20:59.760Z,24.77
2023-02-09T15:23:29.919Z,26.13
2023-02-09T15:25:58.636Z,21.63
2023-02-09T15:28:30.308Z,21.17
2023-02-09T15:31:00.688Z,20.60
2023-02-09T15:33:31.117Z,25.27
2023-02-09T15:36:00.296Z,27.00
2023-02-09T15:38:30.488Z,24.57
2023-02-09T15:41:16.501Z,22.30
2023-02-09T15:44:03.031Z,20.10
2023-02-09T15:46:49.139Z,21.63
2023-02-09T15:49:18.379Z,21.53
2023-02-09T15:51:53.707Z,19.27
2023-02-09T15:54:32.537Z,17.50
2023-02-09T15:57:02.734Z,21.13
2023-02-09T15:59:31.521Z,19.83
2023-02-09T16:02:00.556Z,21.90
2023-02-09T16:04:29.694Z,21.80
2023-02-09T16:06:58.496Z,17.93
2023-02-09T16:09:31.281Z,19.93
2023-02-09T16:12:01.805Z,20.73
2023-02-09T16:14:31.951Z,22.60
2023-02-09T16:17:01.118Z,21.23
2023-02-09T16:19:30.263Z,19.23
2023-02-09T16:22:02.540Z,17.90
2023-02-09T16:24:38.277Z,20.40
2023-02-09T16:27:15.816Z,22.63
2023-02-09T16:29:44.800Z,17.20
2023-02-09T16:32:19.152Z,21.03
2023-02-09T16:34:48.306Z,19.60
2023-02-09T16:37:18.737Z,18.23
2023-02-09T16:39:49.498Z,17.13
2023-02-09T16:42:18.745Z,15.23
2023-02-09T16:44:48.672Z,18.27
2023-02-09T16:47:21.752Z,16.23
2023-02-09T16:49:56.296Z,15.13
2023-02-09T16:52:26.604Z,19.27
2023-02-09T16:54:59.704Z,18.40
2023-02-09T16:57:31.173Z,20.30
2023-02-09T17:00:00.338Z,22.57
2023-02-09T17:02:36.541Z,23.50
2023-02-09T17:05:16.731Z,20.00
2023-02-09T17:07:54.435Z,22.23
2023-02-09T17:10:27.599Z,22.80
2023-02-09T17:12:59.264Z,23.53
2023-02-09T17:15:31.764Z,22.30
2023-02-09T17:18:05.768Z,31.53
2023-02-09T17:20:41.907Z,27.30
2023-02-09T17:23:15.342Z,22.13
2023-02-09T17:25:46.133Z,18.37
2023-02-09T17:28:15.257Z,19.40
2023-02-09T17:30:44.754Z,17.67
2023-02-09T17:33:19.640Z,21.40
2023-02-09T17:36:22.281Z,18.33
2023-02-09T17:38:41.221Z,20.77
2023-02-09T17:41:17.964Z,21.83
2023-02-09T17:43:47.305Z,25.37
2023-02-09T17:46:19.243Z,23.90
2023-02-09T17:48:48.897Z,24.33
2023-02-09T17:51:23.219Z,26.07
2023-02-09T17:53:52.431Z,27.30
2023-02-09T17:56:23.002Z,22.60
2023-02-09T17:58:52.018Z,21.33
2023-02-09T18:01:27.230Z,23.37
2023-02-09T18:03:57.388Z,28.73
2023-02-09T18:06:34.164Z,27.53
2023-02-09T18:09:03.750Z,30.53
2023-02-09T18:11:58.084Z,38.53
2023-02-09T18:14:30.113Z,35.53
2023-02-09T18:16:59.195Z,34.43
2023-02-09T18:19:28.379Z,27.43
2023-02-09T18:22:00.303Z,29.63
2023-02-09T18:24:30.894Z,32.80
2023-02-09T19:03:20.382Z,20.27
2023-02-09T19:05:50.330Z,21.63
2023-02-09T19:08:19.430Z,21.83
2023-02-09T19:10:48.513Z,20.67
2023-02-09T19:13:17.607Z,23.83
2023-02-09T19:15:48.229Z,23.07
2023-02-09T19:18:17.902Z,28.57
2023-02-09T19:20:46.744Z,24.47
2023-02-09T19:23:15.653Z,30.90
2023-02-09T19:25:45.456Z,31.50
2023-02-09T19:28:15.740Z,31.70
2023-02-09T19:30:44.773Z,34.43
2023-02-09T19:33:15.358Z,40.03
2023-02-09T19:35:44.821Z,58.27
2023-02-09T19:38:15.345Z,37.20
2023-02-09T19:40:44.365Z,32.70
2023-02-09T19:43:13.648Z,28.33
2023-02-09T19:45:43.469Z,26.00
2023-02-09T19:48:15.478Z,26.00
2023-02-09T19:50:44.869Z,24.60
2023-02-09T19:53:15.474Z,26.03
2023-02-09T19:55:49.663Z,27.90
2023-02-09T19:58:21.495Z,27.00
2023-02-09T20:00:51.271Z,26.77
2023-02-09T20:03:22.147Z,29.03
2023-02-09T20:05:53.970Z,25.90
2023-02-09T20:08:23.495Z,24.57
2023-02-09T20:10:52.876Z,24.30
2023-02-09T20:15:52.124Z,30.90
2023-02-09T20:18:23.553Z,32.40
2023-02-09T20:20:55.718Z,29.40
2023-02-09T20:23:25.299Z,30.50
2023-02-09T20:25:54.584Z,31.93
2023-02-09T20:28:23.605Z,38.13
2023-02-09T20:30:55.068Z,30.27
2023-02-09T20:33:29.544Z,28.90
2023-02-09T20:36:01.282Z,35.50
2023-02-09T20:38:30.261Z,30.67
2023-02-09T20:40:59.838Z,33.13
2023-02-09T20:43:46.280Z,32.73
2023-02-09T20:46:39.250Z,37.10
2023-02-09T20:49:12.059Z,30.27
2023-02-09T20:51:41.146Z,33.27
2023-02-09T20:54:13.929Z,29.50
2023-02-09T20:56:45.702Z,30.37
2023-02-09T20:59:18.164Z,39.73
2023-02-09T21:01:49.261Z,34.83
2023-02-09T21:04:20.807Z,32.07
2023-02-09T21:06:53.072Z,32.57
2023-02-09T21:09:26.780Z,30.10
2023-02-09T21:11:56.077Z,34.33
2023-02-09T21:14:41.284Z,37.47
2023-02-09T21:17:14.754Z,34.63
2023-02-09T21:19:48.026Z,43.83
2023-02-09T21:22:17.233Z,46.77
2023-02-09T21:24:46.533Z,38.90
2023-02-09T21:27:15.684Z,39.03
2023-02-09T21:29:45.086Z,35.20
2023-02-09T21:32:18.453Z,36.77
2023-02-09T21:34:49.036Z,37.13
2023-02-09T21:37:18.303Z,33.23
2023-02-09T21:39:47.462Z,41.40
2023-02-09T21:42:28.953Z,36.47
2023-02-09T21:44:58.694Z,39.53
2023-02-09T21:47:29.584Z,37.03
2023-02-09T21:50:01.092Z,36.67
2023-02-09T21:52:31.850Z,31.97
2023-02-09T21:55:00.768Z,36.57
2023-02-09T21:57:30.048Z,41.23
2023-02-09T22:00:05.319Z,41.13
2023-02-09T22:02:34.935Z,35.80
2023-02-09T22:05:06.147Z,36.80
2023-02-09T22:07:36.412Z,39.87
2023-02-09T22:10:09.086Z,37.97
2023-02-09T22:12:38.886Z,41.47
2023-02-09T22:15:12.410Z,46.30
2023-02-09T22:17:42.716Z,39.27
2023-02-09T22:20:15.153Z,36.77
2023-02-09T22:22:45.570Z,37.33
2023-02-09T22:25:14.442Z,38.07
2023-02-09T22:27:43.456Z,42.07
2023-02-09T22:30:15.785Z,43.77
2023-02-09T22:32:44.832Z,40.67
2023-02-09T22:35:15.659Z,40.57
2023-02-09T22:37:44.461Z,38.33
2023-02-09T22:40:13.820Z,43.00
2023-02-09T22:42:42.802Z,38.60
2023-02-09T22:45:13.172Z,43.90
2023-02-09T22:47:41.933Z,39.37
2023-02-09T22:50:10.982Z,39.33
2023-02-09T22:52:41.226Z,41.37
2023-02-09T22:55:10.323Z,41.93
2023-02-09T22:57:39.017Z,44.43
2023-02-09T23:00:12.816Z,43.67
2023-02-09T23:02:41.695Z,47.87
2023-02-09T23:05:10.588Z,42.17
2023-02-09T23:07:41.707Z,42.13
2023-02-09T23:10:11.162Z,52.53
2023-02-09T23:12:40.502Z,51.77
2023-02-09T23:15:11.288Z,47.60
2023-02-09T23:17:39.928Z,47.27
2023-02-09T23:20:09.587Z,45.77
2023-02-09T23:22:39.823Z,46.67
2023-02-09T23:25:10.251Z,61.70
2023-02-09T23:27:38.881Z,48.90
2023-02-09T23:30:08.064Z,83.77
2023-02-09T23:32:36.684Z,65.27
2023-02-09T23:35:05.795Z,48.90
2023-02-09T23:37:38.393Z,49.67
2023-02-09T23:40:07.833Z,51.27
2023-02-09T23:42:38.078Z,51.53
2023-02-09T23:45:07.388Z,48.47
2023-02-09T23:47:35.913Z,49.60
2023-02-09T23:50:04.536Z,54.47
2023-02-09T23:52:33.158Z,52.17
2023-02-09T23:55:04.021Z,47.23
2023-02-09T23:57:33.149Z,51.27
